createdAt,value
2019-02-18T00:01:15.533Z,51.71
2019-02-18T00:03:41.535Z,51.76
2019-02-18T00:06:07.512Z,51.70
2019-02-18T00:08:33.521Z,51.78
2019-02-18T00:10:59.504Z,51.66
2019-02-18T00:13:25.479Z,51.70
2019-02-18T00:15:51.508Z,51.67
2019-02-18T00:18:17.495Z,51.66
2019-02-18T00:20:43.500Z,51.70
2019-02-18T00:23:09.490Z,51.75
2019-02-18T00:25:35.828Z,51.68
2019-02-18T00:28:01.897Z,51.75
2019-02-18T00:30:27.881Z,51.79
2019-02-18T00:32:53.885Z,51.81
2019-02-18T00:35:19.947Z,51.83
2019-02-18T00:37:45.956Z,51.88
2019-02-18T00:40:11.929Z,51.80
2019-02-18T00:42:37.917Z,51.93
2019-02-18T00:45:03.888Z,51.84
2019-02-18T00:47:29.869Z,51.71
2019-02-18T00:49:55.892Z,51.67
2019-02-18T00:52:21.880Z,51.53
2019-02-18T00:54:47.889Z,51.70
2019-02-18T00:57:13.871Z,51.78
2019-02-18T00:59:39.876Z,51.63
2019-02-18T01:02:05.867Z,51.54
2019-02-18T01:04:31.948Z,51.51
2019-02-18T01:06:57.929Z,51.55
2019-02-18T01:09:23.923Z,51.56
2019-02-18T01:11:49.970Z,51.57
2019-02-18T01:14:15.952Z,51.50
2019-02-18T01:16:41.946Z,51.57
2019-02-18T01:19:07.922Z,51.59
2019-02-18T01:21:33.906Z,51.50
2019-02-18T01:23:59.886Z,51.50
2019-02-18T01:26:25.879Z,51.50
2019-02-18T01:28:51.880Z,51.53
2019-02-18T01:31:17.859Z,51.44
2019-02-18T01:33:43.836Z,51.42
2019-02-18T01:36:09.832Z,51.43
2019-02-18T01:38:35.803Z,51.39
2019-02-18T01:41:01.796Z,51.36
2019-02-18T01:43:27.768Z,51.34
2019-02-18T01:45:53.762Z,51.24
2019-02-18T01:48:19.746Z,51.28
2019-02-18T01:50:45.757Z,51.23
2019-02-18T01:53:11.781Z,51.30
2019-02-18T01:55:37.788Z,51.37
2019-02-18T01:58:03.767Z,51.41
2019-02-18T02:00:29.750Z,51.34
2019-02-18T02:02:55.758Z,51.49
2019-02-18T02:05:21.753Z,51.43
2019-02-18T02:07:55.940Z,51.39
2019-02-18T02:10:15.484Z,51.44
2019-02-18T02:12:41.473Z,51.53
2019-02-18T02:15:07.458Z,51.67
2019-02-18T02:17:33.480Z,51.69
2019-02-18T02:19:59.521Z,51.67
2019-02-18T02:22:25.520Z,51.64
2019-02-18T02:24:51.541Z,51.70
2019-02-18T02:27:17.718Z,51.81
2019-02-18T02:29:43.806Z,51.74
2019-02-18T02:32:09.785Z,51.64
2019-02-18T02:34:35.762Z,51.48
2019-02-18T02:37:01.758Z,51.54
2019-02-18T02:39:27.723Z,51.53
2019-02-18T02:41:53.733Z,51.52
2019-02-18T02:44:19.803Z,51.48
2019-02-18T02:46:45.786Z,51.42
2019-02-18T02:49:11.850Z,51.47
2019-02-18T02:51:37.829Z,51.47
2019-02-18T02:54:03.825Z,51.42
2019-02-18T02:56:29.801Z,51.37
2019-02-18T02:58:55.802Z,51.30
2019-02-18T03:01:21.773Z,51.36
2019-02-18T03:03:47.763Z,51.26
2019-02-18T03:06:13.746Z,51.26
2019-02-18T03:08:39.759Z,51.26
2019-02-18T03:11:05.741Z,51.30
2019-02-18T03:13:31.729Z,51.26
2019-02-18T03:15:57.723Z,51.31
2019-02-18T03:18:23.715Z,51.30
2019-02-18T03:20:49.753Z,51.30
2019-02-18T03:23:15.724Z,51.31
2019-02-18T03:25:41.701Z,51.35
2019-02-18T03:28:07.670Z,51.40
2019-02-18T03:30:33.744Z,51.41
2019-02-18T03:32:59.715Z,51.41
2019-02-18T03:35:25.694Z,51.38
2019-02-18T03:37:51.670Z,51.39
2019-02-18T03:40:17.672Z,51.39
2019-02-18T03:42:43.653Z,51.38
2019-02-18T03:45:09.710Z,51.39
2019-02-18T03:47:35.694Z,51.43
2019-02-18T03:50:01.757Z,51.38
2019-02-18T03:52:27.745Z,51.37
2019-02-18T03:54:53.759Z,51.37
2019-02-18T03:57:19.754Z,51.35
2019-02-18T03:59:45.740Z,51.37
2019-02-18T04:02:11.805Z,51.34
2019-02-18T04:04:37.772Z,51.32
2019-02-18T04:07:03.770Z,51.32
2019-02-18T04:09:29.753Z,51.31
2019-02-18T04:11:55.848Z,51.28
2019-02-18T04:14:21.825Z,51.25
2019-02-18T04:16:47.830Z,51.12
2019-02-18T04:19:13.900Z,51.21
2019-02-18T04:21:39.908Z,51.22
2019-02-18T04:24:05.894Z,51.18
2019-02-18T04:26:31.867Z,51.22
2019-02-18T04:28:57.853Z,51.24
2019-02-18T04:31:23.850Z,51.25
2019-02-18T04:33:49.840Z,51.25
2019-02-18T04:36:15.827Z,51.21
2019-02-18T04:38:41.849Z,51.29
2019-02-18T04:41:07.855Z,51.36
2019-02-18T04:43:33.839Z,51.28
2019-02-18T04:45:59.924Z,51.25
2019-02-18T04:48:25.942Z,51.24
2019-02-18T04:50:51.938Z,51.20
2019-02-18T04:53:17.914Z,51.24
2019-02-18T04:55:43.972Z,51.21
2019-02-18T04:58:09.982Z,51.21
2019-02-18T05:00:36.032Z,51.26
2019-02-18T05:03:02.041Z,51.32
2019-02-18T05:05:28.026Z,51.32
2019-02-18T05:07:54.000Z,51.28
2019-02-18T05:10:19.986Z,51.24
2019-02-18T05:12:46.005Z,51.22
2019-02-18T05:15:12.003Z,51.28
2019-02-18T05:17:37.988Z,51.24
2019-02-18T05:20:03.995Z,51.17
2019-02-18T05:22:30.016Z,51.19
2019-02-18T05:24:56.018Z,51.16
2019-02-18T05:27:32.775Z,51.19
2019-02-18T05:29:49.711Z,51.18
2019-02-18T05:32:15.705Z,51.16
2019-02-18T05:34:41.765Z,51.20
2019-02-18T05:37:07.780Z,51.16
2019-02-18T05:39:33.767Z,51.07
2019-02-18T05:41:59.801Z,51.05
2019-02-18T05:44:25.856Z,51.06
2019-02-18T05:46:51.882Z,51.18
2019-02-18T05:49:17.863Z,51.09
2019-02-18T05:51:43.866Z,51.12
2019-02-18T05:54:09.843Z,51.11
2019-02-18T05:56:35.829Z,51.11
2019-02-18T05:59:01.819Z,51.09
2019-02-18T06:01:27.806Z,51.02
2019-02-18T06:03:53.802Z,51.19
2019-02-18T06:06:19.790Z,51.08
2019-02-18T06:08:45.805Z,51.14
2019-02-18T06:11:11.864Z,51.09
2019-02-18T06:13:37.852Z,51.16
2019-02-18T06:16:03.879Z,51.08
2019-02-18T06:18:29.859Z,51.08
2019-02-18T06:20:55.839Z,51.05
2019-02-18T06:23:21.841Z,51.06
2019-02-18T06:25:47.937Z,50.98
2019-02-18T06:28:14.066Z,51.06
2019-02-18T06:30:40.061Z,51.10
2019-02-18T06:33:06.054Z,51.00
2019-02-18T06:35:32.074Z,50.95
2019-02-18T06:37:58.072Z,50.95
2019-02-18T06:40:24.140Z,50.99
2019-02-18T06:42:50.137Z,50.87
2019-02-18T06:45:16.187Z,50.99
2019-02-18T06:47:42.164Z,50.63
2019-02-18T06:50:08.136Z,50.79
2019-02-18T06:52:34.172Z,50.97
2019-02-18T06:55:00.319Z,50.97
2019-02-18T06:57:26.419Z,50.97
2019-02-18T06:59:52.395Z,50.98
2019-02-18T07:02:18.387Z,51.13
2019-02-18T07:04:44.377Z,51.02
2019-02-18T07:07:10.359Z,51.09
2019-02-18T07:09:36.335Z,50.94
2019-02-18T07:12:02.338Z,50.94
2019-02-18T07:14:28.299Z,50.85
2019-02-18T07:16:54.281Z,51.01
2019-02-18T07:19:20.261Z,50.92
2019-02-18T07:21:46.245Z,50.98
2019-02-18T07:24:12.224Z,51.01
2019-02-18T07:26:38.229Z,50.91
2019-02-18T07:29:04.205Z,50.89
2019-02-18T07:31:30.223Z,50.93
2019-02-18T07:33:56.201Z,50.76
2019-02-18T07:36:22.256Z,50.79
2019-02-18T07:38:48.261Z,50.81
2019-02-18T07:41:14.239Z,50.75
2019-02-18T07:43:40.264Z,50.67
2019-02-18T07:46:06.312Z,50.63
2019-02-18T07:48:32.314Z,50.64
2019-02-18T07:50:58.346Z,50.86
2019-02-18T07:53:24.404Z,50.83
2019-02-18T07:55:50.438Z,50.73
2019-02-18T07:58:16.426Z,50.78
2019-02-18T08:00:42.444Z,50.81
2019-02-18T08:03:08.447Z,50.81
2019-02-18T08:05:34.462Z,50.86
2019-02-18T08:08:00.451Z,50.90
2019-02-18T08:10:26.478Z,50.93
2019-02-18T08:12:52.495Z,50.98
2019-02-18T08:15:18.479Z,50.99
2019-02-18T08:17:44.465Z,51.02
2019-02-18T08:20:10.539Z,50.99
2019-02-18T08:22:36.522Z,50.91
2019-02-18T08:25:02.512Z,51.03
2019-02-18T08:27:28.583Z,50.91
2019-02-18T08:29:54.557Z,50.93
2019-02-18T08:32:20.659Z,51.01
2019-02-18T08:34:46.740Z,50.92
2019-02-18T08:37:12.719Z,51.03
2019-02-18T08:39:38.724Z,50.98
2019-02-18T08:42:04.700Z,50.91
2019-02-18T08:44:30.687Z,50.94
2019-02-18T08:46:56.711Z,50.89
2019-02-18T08:49:22.699Z,50.76
2019-02-18T08:51:48.752Z,50.87
2019-02-18T08:54:14.752Z,50.79
2019-02-18T08:56:40.818Z,50.74
2019-02-18T08:59:06.785Z,50.87
2019-02-18T09:01:32.760Z,50.95
2019-02-18T09:03:58.749Z,50.88
2019-02-18T09:06:24.742Z,50.94
2019-02-18T09:08:50.788Z,50.83
2019-02-18T09:11:16.805Z,50.79
2019-02-18T09:13:42.820Z,50.68
2019-02-18T09:16:08.893Z,50.63
2019-02-18T09:18:36.861Z,50.52
2019-02-18T09:21:02.836Z,50.34
2019-02-18T09:23:28.835Z,50.47
2019-02-18T09:25:55.627Z,50.39
2019-02-18T09:28:22.769Z,50.18
2019-02-18T09:30:48.808Z,50.37
2019-02-18T09:33:14.797Z,50.28
2019-02-18T09:35:40.827Z,50.28
2019-02-18T09:38:07.917Z,50.27
2019-02-18T09:40:43.925Z,50.30
2019-02-18T09:43:01.755Z,50.34
2019-02-18T09:45:27.758Z,50.23
2019-02-18T09:47:54.438Z,50.24
2019-02-18T09:50:20.608Z,50.12
2019-02-18T09:52:46.616Z,50.12
2019-02-18T09:55:12.615Z,50.08
2019-02-18T09:57:38.681Z,50.06
2019-02-18T10:00:04.740Z,50.03
2019-02-18T10:02:30.730Z,49.96
2019-02-18T10:04:56.753Z,50.00
2019-02-18T10:07:22.782Z,49.95
2019-02-18T10:09:48.835Z,49.81
2019-02-18T10:12:18.283Z,49.75
2019-02-18T10:14:42.589Z,49.64
2019-02-18T10:17:08.585Z,49.61
2019-02-18T10:19:34.576Z,49.59
2019-02-18T10:22:00.590Z,49.49
2019-02-18T10:24:26.560Z,49.54
2019-02-18T10:26:52.592Z,49.49
2019-02-18T10:29:18.694Z,49.47
2019-02-18T10:31:44.695Z,49.50
2019-02-18T10:34:10.728Z,49.40
2019-02-18T10:36:36.742Z,49.35
2019-02-18T10:39:02.744Z,49.22
2019-02-18T10:41:28.787Z,49.26
2019-02-18T10:43:54.868Z,49.23
2019-02-18T10:46:20.868Z,49.13
2019-02-18T10:48:46.879Z,49.04
2019-02-18T10:51:12.866Z,49.03
2019-02-18T10:53:38.930Z,48.94
2019-02-18T10:56:05.008Z,49.00
2019-02-18T10:58:31.013Z,49.04
2019-02-18T11:00:57.126Z,48.99
2019-02-18T11:03:23.100Z,49.01
2019-02-18T11:05:49.106Z,48.85
2019-02-18T11:08:15.159Z,48.85
2019-02-18T11:10:41.171Z,49.15
2019-02-18T11:13:07.153Z,48.68
2019-02-18T11:15:33.167Z,48.37
2019-02-18T11:17:59.150Z,48.14
2019-02-18T11:20:25.122Z,48.28
2019-02-18T11:22:51.132Z,48.25
2019-02-18T11:25:17.111Z,48.36
2019-02-18T11:27:43.116Z,48.28
2019-02-18T11:30:09.172Z,48.18
2019-02-18T11:32:35.555Z,48.13
2019-02-18T11:35:01.553Z,48.25
2019-02-18T11:37:27.631Z,48.30
2019-02-18T11:39:53.619Z,48.86
2019-02-18T11:42:19.602Z,48.57
2019-02-18T11:44:45.608Z,48.33
2019-02-18T11:47:11.618Z,48.11
2019-02-18T11:49:37.708Z,48.14
2019-02-18T11:52:03.687Z,48.26
2019-02-18T11:54:29.677Z,48.15
2019-02-18T11:56:55.787Z,47.98
2019-02-18T11:59:24.211Z,47.88
2019-02-18T12:01:49.559Z,47.75
2019-02-18T12:04:15.607Z,47.73
2019-02-18T12:06:41.616Z,48.35
2019-02-18T12:09:08.986Z,48.58
2019-02-18T12:11:38.068Z,48.46
2019-02-18T12:14:02.881Z,48.42
2019-02-18T12:16:28.937Z,48.31
2019-02-18T12:18:55.061Z,48.42
2019-02-18T12:21:21.031Z,48.36
2019-02-18T12:23:47.116Z,48.09
2019-02-18T12:26:13.141Z,48.16
2019-02-18T12:28:39.190Z,48.26
2019-02-18T12:31:05.714Z,48.52
2019-02-18T12:33:31.762Z,47.94
2019-02-18T12:35:57.756Z,47.93
2019-02-18T12:38:23.837Z,47.95
2019-02-18T12:40:49.933Z,47.93
2019-02-18T12:43:15.997Z,48.50
2019-02-18T12:45:41.986Z,48.01
2019-02-18T12:48:08.072Z,47.66
2019-02-18T12:50:34.441Z,47.20
2019-02-18T12:53:00.470Z,47.54
2019-02-18T12:55:26.646Z,47.44
2019-02-18T12:57:52.986Z,47.90
2019-02-18T13:00:18.986Z,47.68
2019-02-18T13:02:45.345Z,47.43
2019-02-18T13:05:11.514Z,47.22
2019-02-18T13:07:37.536Z,47.20
2019-02-18T13:10:05.366Z,47.45
2019-02-18T13:12:31.307Z,47.62
2019-02-18T13:14:57.776Z,47.55
2019-02-18T13:17:23.856Z,47.49
2019-02-18T13:19:49.955Z,47.48
2019-02-18T13:22:15.938Z,47.49
2019-02-18T13:24:41.993Z,47.67
2019-02-18T13:27:08.056Z,47.68
2019-02-18T13:29:34.067Z,47.79
2019-02-18T13:32:00.147Z,47.87
2019-02-18T13:34:26.192Z,47.82
2019-02-18T13:36:52.180Z,47.90
2019-02-18T13:39:18.252Z,48.03
2019-02-18T13:41:44.232Z,47.92
2019-02-18T13:44:10.346Z,47.96
2019-02-18T13:46:36.424Z,48.02
2019-02-18T13:49:02.521Z,47.96
2019-02-18T13:51:28.576Z,48.02
2019-02-18T13:53:54.557Z,47.99
2019-02-18T13:56:20.537Z,48.14
2019-02-18T13:58:46.997Z,47.96
2019-02-18T14:01:13.099Z,48.21
2019-02-18T14:03:39.078Z,48.17
2019-02-18T14:06:05.162Z,48.64
2019-02-18T14:08:31.147Z,48.57
2019-02-18T14:10:57.138Z,48.34
2019-02-18T14:13:23.202Z,48.21
2019-02-18T14:15:49.248Z,48.27
2019-02-18T14:18:15.718Z,48.19
2019-02-18T14:20:41.717Z,48.43
2019-02-18T14:23:07.779Z,47.82
2019-02-18T14:25:33.772Z,47.40
2019-02-18T14:27:59.831Z,47.77
2019-02-18T14:30:25.929Z,48.28
2019-02-18T14:32:51.928Z,48.29
2019-02-18T14:35:17.923Z,47.99
2019-02-18T14:37:43.898Z,48.04
2019-02-18T14:40:10.090Z,48.03
2019-02-18T14:42:36.087Z,48.07
2019-02-18T14:45:02.158Z,47.86
2019-02-18T14:47:28.214Z,48.04
2019-02-18T14:49:54.221Z,48.02
2019-02-18T14:52:20.302Z,48.53
2019-02-18T14:54:46.292Z,48.53
2019-02-18T14:57:12.300Z,48.61
2019-02-18T14:59:38.672Z,48.27
2019-02-18T15:02:04.712Z,48.15
2019-02-18T15:04:30.774Z,48.54
2019-02-18T15:06:56.863Z,48.66
2019-02-18T15:09:22.942Z,48.34
2019-02-18T15:11:49.015Z,47.45
2019-02-18T15:14:15.008Z,47.90
2019-02-18T15:16:41.116Z,47.69
2019-02-18T15:19:07.592Z,47.80
2019-02-18T15:21:33.641Z,48.06
2019-02-18T15:23:59.642Z,48.31
2019-02-18T15:26:25.727Z,48.15
2019-02-18T15:28:51.724Z,47.96
2019-02-18T15:31:17.720Z,48.19
2019-02-18T15:33:43.816Z,48.24
2019-02-18T15:36:09.899Z,47.83
2019-02-18T15:38:36.103Z,47.79
2019-02-18T15:41:02.180Z,47.52
2019-02-18T15:43:28.166Z,47.75
2019-02-18T15:45:54.145Z,47.34
2019-02-18T15:48:20.226Z,47.50
2019-02-18T15:50:46.308Z,47.57
2019-02-18T15:53:12.329Z,47.58
2019-02-18T15:55:38.378Z,47.67
2019-02-18T15:58:04.460Z,47.74
2019-02-18T16:00:30.807Z,47.69
2019-02-18T16:02:56.887Z,47.87
2019-02-18T16:05:22.869Z,48.06
2019-02-18T16:07:48.859Z,48.15
2019-02-18T16:10:14.852Z,48.20
2019-02-18T16:12:41.033Z,48.36
2019-02-18T16:15:07.373Z,48.42
2019-02-18T16:17:33.664Z,48.51
2019-02-18T16:20:00.040Z,48.64
2019-02-18T16:22:26.096Z,48.66
2019-02-18T16:24:52.117Z,48.71
2019-02-18T16:27:18.117Z,48.73
2019-02-18T16:29:44.126Z,48.75
2019-02-18T16:32:10.128Z,48.84
2019-02-18T16:34:36.138Z,48.82
2019-02-18T16:37:02.509Z,48.79
2019-02-18T16:39:28.505Z,48.93
2019-02-18T16:41:54.858Z,49.03
2019-02-18T16:44:20.933Z,49.01
2019-02-18T16:46:47.019Z,48.99
2019-02-18T16:49:13.430Z,49.00
2019-02-18T16:51:39.495Z,49.06
2019-02-18T16:54:05.510Z,49.12
2019-02-18T16:56:31.670Z,49.05
2019-02-18T16:58:58.159Z,49.07
2019-02-18T17:01:24.217Z,49.15
2019-02-18T17:03:50.277Z,49.18
2019-02-18T17:06:16.339Z,49.28
2019-02-18T17:08:42.451Z,49.22
2019-02-18T17:11:08.496Z,49.31
2019-02-18T17:13:34.568Z,49.37
2019-02-18T17:16:00.656Z,49.40
2019-02-18T17:18:26.874Z,49.33
2019-02-18T17:20:53.013Z,49.36
2019-02-18T17:23:19.260Z,49.40
2019-02-18T17:25:48.462Z,49.40
2019-02-18T17:28:14.278Z,49.44
2019-02-18T17:30:40.348Z,49.52
2019-02-18T17:33:06.336Z,49.46
2019-02-18T17:35:32.374Z,49.47
2019-02-18T17:37:58.573Z,49.61
2019-02-18T17:40:24.833Z,49.63
2019-02-18T17:42:50.926Z,49.55
2019-02-18T17:45:16.999Z,49.58
2019-02-18T17:47:43.121Z,49.63
2019-02-18T17:50:09.196Z,49.67
2019-02-18T17:52:35.406Z,49.62
2019-02-18T17:55:01.495Z,49.57
2019-02-18T17:57:27.588Z,49.58
2019-02-18T17:59:54.011Z,49.74
2019-02-18T18:02:20.065Z,49.74
2019-02-18T18:04:46.238Z,49.73
2019-02-18T18:07:12.292Z,49.72
2019-02-18T18:09:38.295Z,49.74
2019-02-18T18:12:04.297Z,49.65
2019-02-18T18:14:30.297Z,49.43
2019-02-18T18:16:56.359Z,49.29
2019-02-18T18:19:22.523Z,49.28
2019-02-18T18:21:48.655Z,49.25
2019-02-18T18:24:14.691Z,49.18
2019-02-18T18:26:40.825Z,49.34
2019-02-18T18:29:06.871Z,49.16
2019-02-18T18:31:32.902Z,49.29
2019-02-18T18:33:58.953Z,49.39
2019-02-18T18:36:24.978Z,49.46
2019-02-18T18:38:50.989Z,49.44
2019-02-18T18:41:17.429Z,49.52
2019-02-18T18:43:43.433Z,49.61
2019-02-18T18:46:09.452Z,49.58
2019-02-18T18:48:35.529Z,49.66
2019-02-18T18:51:01.543Z,49.72
2019-02-18T18:53:27.628Z,49.76
2019-02-18T18:55:53.688Z,49.82
2019-02-18T18:58:19.703Z,49.98
2019-02-18T19:00:45.964Z,49.97
2019-02-18T19:03:12.001Z,49.95
2019-02-18T19:05:38.114Z,49.96
2019-02-18T19:08:04.118Z,50.07
2019-02-18T19:10:32.221Z,50.13
2019-02-18T19:12:58.305Z,50.07
2019-02-18T19:15:24.389Z,50.08
2019-02-18T19:17:50.811Z,50.11
2019-02-18T19:20:16.848Z,50.03
2019-02-18T19:22:42.868Z,50.07
2019-02-18T19:25:08.948Z,50.14
2019-02-18T19:27:35.191Z,50.15
2019-02-18T19:30:01.187Z,50.13
2019-02-18T19:32:27.228Z,50.14
2019-02-18T19:34:53.326Z,50.21
2019-02-18T19:37:19.729Z,49.84
2019-02-18T19:39:45.745Z,50.24
2019-02-18T19:42:11.812Z,50.20
2019-02-18T19:44:37.917Z,50.29
2019-02-18T19:47:03.915Z,50.34
2019-02-18T19:49:29.921Z,50.28
2019-02-18T19:51:55.942Z,50.19
2019-02-18T19:54:22.056Z,50.08
2019-02-18T19:56:48.427Z,50.23
2019-02-18T19:59:14.418Z,50.10
2019-02-18T20:01:40.623Z,49.87
2019-02-18T20:04:06.683Z,49.97
2019-02-18T20:06:32.678Z,49.95
2019-02-18T20:08:58.698Z,49.89
2019-02-18T20:11:24.808Z,49.88
2019-02-18T20:13:58.569Z,50.10
2019-02-18T20:16:18.716Z,50.05
2019-02-18T20:18:44.823Z,49.95
2019-02-18T20:21:10.807Z,49.89
2019-02-18T20:23:36.933Z,50.01
2019-02-18T20:26:03.391Z,50.41
2019-02-18T20:28:29.834Z,50.58
2019-02-18T20:30:55.976Z,50.63
2019-02-18T20:33:22.167Z,50.54
2019-02-18T20:35:48.475Z,50.70
2019-02-18T20:38:14.557Z,50.57
2019-02-18T20:40:40.581Z,50.64
2019-02-18T20:43:07.684Z,50.76
2019-02-18T20:45:33.698Z,50.79
2019-02-18T20:47:59.820Z,50.84
2019-02-18T20:50:25.876Z,50.69
2019-02-18T20:52:51.891Z,50.94
2019-02-18T20:55:18.069Z,50.86
2019-02-18T20:57:44.105Z,50.91
2019-02-18T21:00:10.284Z,50.95
2019-02-18T21:02:36.266Z,51.11
2019-02-18T21:05:02.248Z,51.05
2019-02-18T21:07:28.348Z,51.16
2019-02-18T21:09:54.388Z,51.21
2019-02-18T21:12:21.395Z,51.31
2019-02-18T21:14:47.867Z,51.12
2019-02-18T21:17:13.886Z,51.37
2019-02-18T21:19:39.947Z,51.44
2019-02-18T21:22:05.979Z,51.41
2019-02-18T21:24:32.090Z,51.40
2019-02-18T21:26:58.169Z,51.52
2019-02-18T21:29:24.221Z,51.54
2019-02-18T21:31:50.422Z,51.47
2019-02-18T21:34:16.701Z,51.52
2019-02-18T21:36:42.721Z,51.57
2019-02-18T21:39:08.732Z,51.46
2019-02-18T21:41:34.711Z,51.50
2019-02-18T21:44:00.858Z,51.41
2019-02-18T21:46:26.854Z,51.59
2019-02-18T21:48:52.865Z,51.57
2019-02-18T21:51:18.878Z,51.48
2019-02-18T21:53:45.239Z,51.54
2019-02-18T21:56:11.306Z,51.55
2019-02-18T21:58:37.436Z,51.57
2019-02-18T22:01:03.537Z,51.62
2019-02-18T22:03:29.626Z,51.63
2019-02-18T22:05:55.604Z,51.68
2019-02-18T22:08:21.651Z,51.73
2019-02-18T22:10:47.630Z,51.63
2019-02-18T22:13:13.723Z,51.67
2019-02-18T22:15:39.702Z,51.62
2019-02-18T22:18:05.773Z,51.73
2019-02-18T22:20:31.757Z,51.64
2019-02-18T22:22:57.809Z,51.60
2019-02-18T22:25:23.832Z,52.20
2019-02-18T22:27:49.852Z,53.30
2019-02-18T22:30:15.891Z,53.04
2019-02-18T22:32:41.948Z,52.02
2019-02-18T22:35:07.949Z,52.76
2019-02-18T22:37:34.128Z,52.52
2019-02-18T22:40:00.362Z,52.67
2019-02-18T22:42:26.690Z,52.52
2019-02-18T22:44:53.060Z,52.85
2019-02-18T22:47:19.354Z,52.58
2019-02-18T22:49:45.493Z,52.46
2019-02-18T22:52:11.489Z,52.58
2019-02-18T22:54:37.512Z,52.79
2019-02-18T22:57:03.520Z,52.81
2019-02-18T22:59:29.913Z,52.98
2019-02-18T23:01:55.915Z,53.03
2019-02-18T23:04:21.931Z,52.97
2019-02-18T23:06:47.924Z,53.01
2019-02-18T23:09:13.924Z,53.18
2019-02-18T23:11:40.021Z,53.13
2019-02-18T23:14:06.004Z,52.90
2019-02-18T23:16:32.000Z,53.10
2019-02-18T23:18:58.096Z,53.34
2019-02-18T23:21:24.191Z,52.87
2019-02-18T23:23:50.156Z,52.85
2019-02-18T23:26:16.168Z,53.06
2019-02-18T23:28:42.146Z,53.04
2019-02-18T23:31:08.163Z,53.10
2019-02-18T23:33:34.162Z,52.97
2019-02-18T23:36:00.226Z,52.88
2019-02-18T23:38:26.224Z,52.99
2019-02-18T23:40:52.200Z,52.88
2019-02-18T23:43:18.179Z,53.12
2019-02-18T23:45:44.171Z,52.94
2019-02-18T23:48:10.176Z,52.95
2019-02-18T23:50:36.223Z,52.90
2019-02-18T23:53:02.217Z,52.79
2019-02-18T23:55:28.229Z,52.83
2019-02-18T23:57:54.204Z,52.79
